Time;durP1;ratioP1;P1;durP2;ratioP2;P2;SDS_P1;SDS_P2;PMS_P1;PMS_P2;Temp;Humidity;BMP_temperature;BMP_pressure;BME280_temperature;BME280_humidity;BME280_pressure;Samples;Min_cycle;Max_cycle;Signal;HPM_P1;HPM_P2
2021/10/10 00:01:01;;;;;;;22.37;19.90;;;27.00;99.90;;;;;;1999516;71;21084;-86
2021/10/10 00:03:32;;;;;;;22.00;19.67;;;27.00;99.90;;;;;;1994704;71;21074;-85
2021/10/10 00:06:02;;;;;;;22.30;20.00;;;27.00;99.90;;;;;;1984570;71;21068;-86
2021/10/10 00:08:35;;;;;;;21.30;19.15;;;27.10;99.90;;;;;;1999388;71;21567;-86
2021/10/10 00:11:06;;;;;;;22.17;19.87;;;27.00;99.90;;;;;;1998817;71;21045;-85
2021/10/10 00:13:36;;;;;;;22.70;20.37;;;27.10;99.90;;;;;;2003299;71;21104;-85
2021/10/10 00:16:08;;;;;;;22.58;19.65;;;27.10;99.90;;;;;;2001291;71;21179;-86
2021/10/10 00:18:39;;;;;;;22.35;19.90;;;27.10;99.90;;;;;;1999164;71;21172;-86
2021/10/10 00:21:10;;;;;;;24.12;21.75;;;27.10;99.90;;;;;;1988635;71;21060;-87
2021/10/10 00:23:42;;;;;;;22.00;19.70;;;27.10;99.90;;;;;;1961439;72;21056;-87
2021/10/10 00:26:13;;;;;;;22.52;20.12;;;27.20;99.90;;;;;;1949033;72;21239;-86
2021/10/10 00:28:44;;;;;;;22.45;20.10;;;27.20;99.90;;;;;;1966583;72;21220;-86
2021/10/10 00:31:17;;;;;;;23.30;20.90;;;27.30;99.90;;;;;;1973399;72;21072;-86
2021/10/10 00:33:46;;;;;;;21.52;19.20;;;27.30;99.90;;;;;;1966081;72;21551;-86
2021/10/10 00:36:18;;;;;;;22.30;20.10;;;27.30;99.90;;;;;;1971268;72;21117;-85
2021/10/10 00:38:48;;;;;;;21.48;19.25;;;27.30;99.90;;;;;;1969006;72;21067;-86
2021/10/10 00:41:19;;;;;;;20.72;18.70;;;27.30;99.90;;;;;;1976885;72;21725;-86
2021/10/10 00:43:50;;;;;;;22.35;19.42;;;27.30;99.90;;;;;;1969206;72;21543;-85
2021/10/10 00:46:21;;;;;;;22.20;19.82;;;27.30;99.90;;;;;;1966724;72;21559;-86
2021/10/10 00:48:52;;;;;;;20.97;18.52;;;27.30;99.90;;;;;;1974391;72;21612;-85
2021/10/10 00:51:23;;;;;;;19.82;17.75;;;27.40;99.90;;;;;;1968212;71;21148;-88
2021/10/10 00:53:56;;;;;;;19.67;17.67;;;27.40;99.90;;;;;;1977446;72;21068;-87
2021/10/10 00:56:28;;;;;;;18.15;16.35;;;27.50;99.90;;;;;;1967698;72;21169;-86
2021/10/10 00:59:01;;;;;;;21.10;18.37;;;27.50;99.90;;;;;;1964285;72;21679;-86
2021/10/10 01:01:32;;;;;;;20.60;17.55;;;27.60;99.90;;;;;;1932099;73;21125;-88
2021/10/10 01:04:04;;;;;;;20.12;17.95;;;27.60;99.90;;;;;;1966900;72;21118;-87
2021/10/10 01:06:36;;;;;;;19.95;16.55;;;27.60;99.90;;;;;;1958808;72;21082;-77
2021/10/10 01:09:07;;;;;;;23.90;16.50;;;27.70;99.90;;;;;;1973316;72;21558;-77
2021/10/10 01:11:38;;;;;;;19.40;17.20;;;27.70;99.90;;;;;;1970624;72;21083;-79
2021/10/10 01:14:11;;;;;;;19.80;17.77;;;27.80;99.90;;;;;;1968929;72;21055;-79
2021/10/10 01:16:42;;;;;;;18.32;16.42;;;27.80;99.90;;;;;;1967975;72;21204;-79
2021/10/10 01:19:15;;;;;;;21.27;17.23;;;27.80;99.90;;;;;;1970990;72;21074;-78
2021/10/10 01:21:47;;;;;;;20.85;16.80;;;27.90;99.90;;;;;;1963334;72;21126;-79
2021/10/10 01:24:18;;;;;;;18.07;16.12;;;28.00;99.90;;;;;;1965699;72;21063;-79
2021/10/10 01:26:49;;;;;;;19.15;17.15;;;28.00;99.90;;;;;;1969116;72;21076;-77
2021/10/10 01:29:20;;;;;;;18.50;16.55;;;28.00;99.90;;;;;;1962928;72;21036;-79
2021/10/10 01:31:51;;;;;;;18.48;16.30;;;28.00;99.90;;;;;;1966202;72;21124;-80
2021/10/10 01:34:21;;;;;;;17.62;15.83;;;28.10;99.90;;;;;;1961626;72;21500;-77
2021/10/10 01:36:52;;;;;;;17.23;15.43;;;28.20;99.90;;;;;;1977071;72;21534;-80
2021/10/10 01:39:23;;;;;;;17.85;15.45;;;28.20;99.60;;;;;;1966973;72;21560;-79
2021/10/10 01:41:54;;;;;;;23.60;16.10;;;28.30;99.40;;;;;;1976204;72;21063;-78
2021/10/10 01:44:25;;;;;;;18.15;15.08;;;28.30;99.60;;;;;;1970586;72;21656;-79
2021/10/10 01:47:00;;;;;;;17.42;15.13;;;28.40;99.40;;;;;;1961454;72;21555;-80
2021/10/10 01:49:31;;;;;;;15.68;14.10;;;28.50;99.40;;;;;;1944945;72;21050;-78
2021/10/10 01:52:07;;;;;;;18.55;14.25;;;28.60;99.20;;;;;;1947198;72;21493;-78
2021/10/10 01:54:35;;;;;;;16.07;14.43;;;28.60;98.70;;;;;;1943978;72;21613;-80
2021/10/10 01:57:06;;;;;;;16.48;14.80;;;28.70;98.50;;;;;;1945420;72;21125;-78
2021/10/10 01:59:37;;;;;;;16.90;15.20;;;28.80;98.80;;;;;;1941738;72;21125;-79
2021/10/10 02:02:07;;;;;;;18.02;15.40;;;28.80;98.40;;;;;;1971079;72;21067;-77
2021/10/10 02:04:39;;;;;;;17.02;15.32;;;28.80;98.30;;;;;;1968831;72;21546;-78
2021/10/10 02:07:10;;;;;;;16.48;14.87;;;28.80;98.50;;;;;;1994565;71;21028;-78
2021/10/10 02:09:42;;;;;;;16.35;14.38;;;28.90;98.40;;;;;;1997998;71;21049;-77
2021/10/10 02:12:13;;;;;;;16.55;14.93;;;29.00;98.20;;;;;;1947661;72;21570;-76
2021/10/10 02:14:44;;;;;;;17.40;14.50;;;29.10;97.70;;;;;;1946452;72;21535;-76
2021/10/10 02:17:15;;;;;;;15.35;13.85;;;29.10;98.00;;;;;;1964489;72;21115;-79
2021/10/10 02:19:46;;;;;;;14.75;13.35;;;29.20;97.50;;;;;;1972471;72;21080;-78
2021/10/10 02:22:17;;;;;;;16.07;14.03;;;29.30;97.30;;;;;;1954822;72;21200;-77
2021/10/10 02:24:48;;;;;;;14.80;13.40;;;29.40;97.10;;;;;;1971805;72;21085;-78
2021/10/10 02:27:19;;;;;;;14.05;12.53;;;29.50;96.70;;;;;;1968198;72;21609;-77
2021/10/10 02:29:55;;;;;;;14.93;13.38;;;29.50;96.10;;;;;;1967131;72;21140;-78
2021/10/10 02:32:26;;;;;;;15.15;12.80;;;29.50;95.90;;;;;;1858353;75;21091;-78
2021/10/10 02:35:00;;;;;;;13.98;12.55;;;29.50;96.40;;;;;;1897400;75;21072;-77
2021/10/10 02:37:34;;;;;;;13.90;12.60;;;29.60;96.60;;;;;;1862175;75;22451;-78
2021/10/10 02:40:08;;;;;;;15.70;13.35;;;29.60;96.10;;;;;;1878477;74;22307;-77
2021/10/10 02:42:42;;;;;;;16.48;12.10;;;29.70;95.80;;;;;;1964731;72;21146;-80
2021/10/10 02:45:13;;;;;;;14.30;12.80;;;29.90;95.40;;;;;;1952152;72;21148;-80
2021/10/10 02:47:44;;;;;;;14.47;12.78;;;30.00;95.20;;;;;;1923161;72;21151;-79
2021/10/10 02:50:16;;;;;;;13.25;11.97;;;30.10;94.90;;;;;;1888566;75;21205;-79
2021/10/10 02:52:47;;;;;;;14.70;13.08;;;30.20;94.80;;;;;;1918799;73;21093;-79
2021/10/10 02:55:18;;;;;;;13.70;12.30;;;30.30;94.90;;;;;;1963996;72;21072;-79
2021/10/10 02:57:49;;;;;;;16.05;12.47;;;30.40;94.80;;;;;;1973094;72;21130;-79
2021/10/10 03:00:20;;;;;;;14.00;12.35;;;30.50;94.30;;;;;;1957942;72;21072;-79
2021/10/10 03:02:52;;;;;;;13.18;11.78;;;30.60;93.50;;;;;;1976302;72;21598;-79
2021/10/10 03:05:23;;;;;;;12.03;10.90;;;30.70;93.00;;;;;;1967314;72;21584;-81
2021/10/10 03:07:54;;;;;;;12.68;11.48;;;30.90;92.80;;;;;;1970974;72;21135;-80
2021/10/10 03:10:25;;;;;;;13.80;12.43;;;31.00;92.60;;;;;;1972609;71;21129;-81
2021/10/10 03:12:55;;;;;;;13.22;11.93;;;31.00;92.80;;;;;;1958849;72;21051;-79
2021/10/10 03:15:29;;;;;;;13.53;11.85;;;31.10;93.10;;;;;;1947194;73;21075;-78
2021/10/10 03:18:00;;;;;;;13.00;11.48;;;31.20;92.80;;;;;;1973645;71;21047;-80
2021/10/10 03:20:32;;;;;;;12.28;11.03;;;31.20;92.80;;;;;;1980281;72;21507;-79
2021/10/10 03:23:03;;;;;;;15.98;11.97;;;31.30;92.60;;;;;;1977621;72;21544;-78
2021/10/10 03:25:34;;;;;;;14.73;11.97;;;31.40;92.50;;;;;;1974259;72;21192;-80
2021/10/10 03:28:06;;;;;;;13.15;10.98;;;31.50;92.50;;;;;;1972611;72;21114;-82
2021/10/10 03:30:38;;;;;;;17.25;11.10;;;31.60;90.90;;;;;;1968542;72;21721;-81
2021/10/10 03:33:08;;;;;;;12.45;11.12;;;31.60;90.40;;;;;;1961493;72;21087;-79
2021/10/10 03:35:39;;;;;;;15.63;11.20;;;31.70;91.00;;;;;;1973077;72;21126;-80
2021/10/10 03:38:13;;;;;;;14.15;10.80;;;31.80;91.30;;;;;;1963228;72;21581;-81
2021/10/10 03:40:45;;;;;;;12.75;11.50;;;31.80;90.90;;;;;;1960565;72;21050;-79
2021/10/10 03:43:16;;;;;;;11.63;10.23;;;31.80;91.10;;;;;;1948536;72;21583;-78
2021/10/10 03:45:47;;;;;;;12.75;11.45;;;31.90;90.70;;;;;;1961002;72;21431;-79
2021/10/10 03:48:18;;;;;;;15.40;11.28;;;32.00;90.90;;;;;;1971533;72;21802;-79
2021/10/10 03:50:49;;;;;;;12.55;11.30;;;32.10;90.60;;;;;;1968027;72;21204;-80
2021/10/10 03:53:35;;;;;;;11.30;10.20;;;32.10;90.40;;;;;;1961983;72;21070;-79
2021/10/10 03:55:52;;;;;;;12.55;10.75;;;32.20;90.30;;;;;;1953493;72;21079;-79
2021/10/10 03:58:23;;;;;;;12.88;11.05;;;32.30;89.40;;;;;;1925246;72;21601;-78
2021/10/10 04:00:57;;;;;;;12.20;10.93;;;32.30;89.90;;;;;;1883789;75;21102;-76
2021/10/10 04:03:29;;;;;;;11.55;10.35;;;32.40;89.70;;;;;;1962493;72;21128;-77
2021/10/10 04:06:02;;;;;;;15.25;10.98;;;32.40;89.30;;;;;;1963244;72;21573;-77
2021/10/10 04:08:44;;;;;;;12.82;10.60;;;32.50;89.80;;;;;;1957938;72;21549;-77
2021/10/10 04:11:10;;;;;;;12.03;10.82;;;32.60;88.80;;;;;;1955408;72;21074;-77
2021/10/10 04:13:41;;;;;;;12.33;10.75;;;32.60;89.70;;;;;;1970445;72;21117;-77
2021/10/10 04:16:14;;;;;;;13.40;9.98;;;32.70;87.30;;;;;;1967554;72;21090;-78
2021/10/10 04:18:45;;;;;;;11.73;9.95;;;32.90;86.10;;;;;;1953539;72;21067;-77
2021/10/10 04:21:16;;;;;;;14.28;10.58;;;32.90;84.90;;;;;;1959974;72;21538;-77
2021/10/10 04:23:47;;;;;;;13.13;10.15;;;32.90;86.60;;;;;;1971427;72;21572;-77
2021/10/10 04:26:18;;;;;;;11.63;9.53;;;33.00;86.10;;;;;;1981000;72;21363;-77
2021/10/10 04:28:51;;;;;;;11.38;10.08;;;33.00;86.50;;;;;;1967367;72;21164;-75
2021/10/10 04:31:22;;;;;;;10.85;9.53;;;33.00;87.00;;;;;;1967063;72;21514;-77
2021/10/10 04:33:53;;;;;;;11.95;9.93;;;33.00;85.60;;;;;;1964324;72;21138;-76
2021/10/10 04:36:24;;;;;;;13.68;10.20;;;33.00;84.90;;;;;;1961612;72;21060;-76
2021/10/10 04:38:55;;;;;;;10.15;9.13;;;33.00;85.00;;;;;;1975428;72;21126;-77
2021/10/10 04:41:26;;;;;;;12.10;9.88;;;33.10;84.30;;;;;;1971036;72;21079;-76
2021/10/10 04:43:57;;;;;;;12.00;9.23;;;33.20;84.80;;;;;;1971259;72;21626;-77
2021/10/10 04:46:33;;;;;;;10.60;9.50;;;33.20;84.20;;;;;;1977162;72;22000;-76
2021/10/10 04:49:01;;;;;;;10.65;9.65;;;33.20;82.20;;;;;;1961970;72;21593;-77
2021/10/10 04:51:32;;;;;;;11.88;9.38;;;33.10;82.90;;;;;;1955119;71;21490;-75
2021/10/10 04:54:06;;;;;;;10.68;9.58;;;33.10;83.60;;;;;;1956700;71;21043;-76
2021/10/10 04:56:40;;;;;;;10.88;9.78;;;33.20;84.10;;;;;;1939346;72;21070;-75
2021/10/10 04:59:10;;;;;;;12.30;10.15;;;;;;;;;;1897480;74;21085;-77
2021/10/10 05:01:41;;;;;;;13.20;9.80;;;33.40;81.60;;;;;;1954694;72;21563;-76
2021/10/10 05:04:12;;;;;;;10.08;9.10;;;33.40;83.00;;;;;;1968254;72;21094;-76
2021/10/10 05:06:43;;;;;;;10.32;9.30;;;33.40;84.30;;;;;;1965831;72;21127;-78
2021/10/10 05:09:14;;;;;;;10.30;9.23;;;33.40;80.60;;;;;;1968129;72;21189;-75
2021/10/10 05:11:48;;;;;;;10.32;9.30;;;33.40;81.70;;;;;;1967654;71;21531;-76
2021/10/10 05:14:20;;;;;;;11.53;8.90;;;33.40;84.00;;;;;;1970020;72;21494;-76
2021/10/10 05:16:52;;;;;;;10.90;9.80;;;33.50;80.40;;;;;;1964664;72;21201;-76
2021/10/10 05:19:23;;;;;;;11.48;9.38;;;33.50;81.00;;;;;;1959264;72;21695;-77
2021/10/10 05:21:56;;;;;;;9.85;8.85;;;33.50;81.90;;;;;;1968380;72;21070;-77
2021/10/10 05:27:16;;;;;;;11.03;9.03;;;33.60;80.50;;;;;;1873719;74;21127;-77
2021/10/10 05:29:48;;;;;;;11.25;9.25;;;33.60;80.50;;;;;;1857909;75;21102;-78
2021/10/10 05:32:19;;;;;;;12.23;9.40;;;33.60;80.80;;;;;;1853919;76;21113;-77
2021/10/10 05:34:51;;;;;;;10.30;9.30;;;33.70;82.60;;;;;;1844701;76;21130;-77
2021/10/10 05:37:22;;;;;;;11.10;9.13;;;33.70;83.40;;;;;;1859163;75;21095;-78
2021/10/10 05:39:54;;;;;;;9.50;8.55;;;33.70;84.40;;;;;;1865606;75;21055;-77
2021/10/10 05:42:26;;;;;;;12.03;8.83;;;33.60;85.40;;;;;;1887474;74;21111;-76
2021/10/10 05:44:57;;;;;;;10.40;9.28;;;33.60;86.10;;;;;;1876121;74;21531;-77
2021/10/10 05:47:29;;;;;;;9.80;8.80;;;33.70;86.10;;;;;;1887316;74;21081;-75
2021/10/10 05:50:01;;;;;;;11.78;9.20;;;33.60;86.90;;;;;;1851975;73;21538;-77
2021/10/10 05:52:41;;;;;;;11.15;9.95;;;33.30;89.10;;;;;;1892263;75;21153;-77
2021/10/10 05:55:15;;;;;;;10.50;9.08;;;33.20;90.20;;;;;;1849554;77;21117;-76
2021/10/10 05:57:49;;;;;;;13.53;9.83;;;33.20;88.80;;;;;;1857712;76;21101;-77
2021/10/10 06:00:20;;;;;;;9.98;8.98;;;33.20;89.50;;;;;;1843353;77;21183;-75
2021/10/10 06:02:52;;;;;;;14.47;9.43;;;33.30;86.70;;;;;;1847718;77;21086;-76
2021/10/10 06:05:27;;;;;;;10.98;9.13;;;33.20;86.80;;;;;;1850937;77;21153;-77
2021/10/10 06:11:01;;;;;;;12.53;9.00;;;33.40;89.10;;;;;;1810093;77;21179;-77
2021/10/10 06:13:34;;;;;;;11.30;8.93;;;33.50;87.60;;;;;;1819017;77;21114;-77
2021/10/10 06:16:15;;;;;;;16.87;9.53;;;33.60;88.80;;;;;;1818384;77;21104;-77
2021/10/10 06:19:11;;;;;;;12.07;8.60;;;33.40;87.80;;;;;;1796634;73;21119;-76
2021/10/10 06:21:42;;;;;;;11.60;8.73;;;33.40;87.70;;;;;;1785654;79;21177;-77
2021/10/10 06:24:13;;;;;;;9.85;8.70;;;33.50;89.00;;;;;;1804101;79;21626;-76
2021/10/10 06:26:44;;;;;;;11.40;8.43;;;33.50;89.00;;;;;;1767948;80;21712;-77
2021/10/10 06:29:15;;;;;;;9.85;8.75;;;33.50;88.60;;;;;;1799799;78;21198;-76
2021/10/10 06:31:46;;;;;;;13.65;9.20;;;33.60;90.40;;;;;;1797748;78;21124;-76
2021/10/10 06:34:17;;;;;;;9.63;8.73;;;33.60;89.30;;;;;;1797455;78;21633;-75
2021/10/10 06:36:48;;;;;;;8.98;8.08;;;33.60;89.70;;;;;;1793268;78;21734;-75
2021/10/10 06:39:19;;;;;;;10.18;8.60;;;33.60;89.40;;;;;;1818094;77;21240;-75
2021/10/10 06:41:50;;;;;;;11.38;9.20;;;33.80;90.00;;;;;;1818976;77;21135;-76
2021/10/10 06:44:43;;;;;;;11.78;9.40;;;33.80;89.10;;;;;;1818436;78;21574;-78
2021/10/10 06:47:23;;;;;;;11.50;9.88;;;33.70;89.40;;;;;;1790099;76;21096;-75
2021/10/10 06:50:02;;;;;;;13.38;9.23;;;33.60;90.20;;;;;;1850614;74;21163;-77
2021/10/10 06:52:34;;;;;;;10.35;9.25;;;33.50;91.00;;;;;;1823314;75;21079;-76
2021/10/10 06:55:06;;;;;;;9.38;8.43;;;33.40;91.80;;;;;;1819450;76;21139;-76
2021/10/10 06:57:38;;;;;;;10.30;9.08;;;33.50;91.70;;;;;;1857992;74;21750;-76
2021/10/10 07:00:09;;;;;;;9.50;8.33;;;33.70;91.50;;;;;;1830115;77;21099;-76
2021/10/10 07:02:52;;;;;;;9.73;8.73;;;33.70;91.70;;;;;;1840272;76;21555;-77
2021/10/10 07:05:27;;;;;;;12.23;8.30;;;33.70;91.60;;;;;;1806730;78;21692;-76
2021/10/10 07:07:58;;;;;;;11.50;9.70;;;33.80;92.80;;;;;;1817206;76;21321;-75
2021/10/10 07:10:29;;;;;;;11.57;8.98;;;33.60;92.50;;;;;;1821209;77;21162;-76
2021/10/10 07:13:00;;;;;;;10.48;8.43;;;33.60;91.90;;;;;;1844912;76;21225;-76
2021/10/10 07:15:33;;;;;;;9.95;8.90;;;33.60;92.00;;;;;;1843072;75;21112;-76
2021/10/10 07:18:07;;;;;;;10.63;8.70;;;33.80;92.00;;;;;;1878240;75;21077;-76
2021/10/10 07:20:50;;;;;;;9.95;8.95;;;33.80;91.80;;;;;;1865341;75;21366;-76
2021/10/10 07:25:41;;;;;;;11.63;8.93;;;33.70;92.70;;;;;;1832758;76;21540;-76
2021/10/10 07:28:12;;;;;;;17.07;8.83;;;33.60;92.00;;;;;;1817677;77;21166;-75
2021/10/10 07:30:45;;;;;;;10.88;8.28;;;33.60;91.80;;;;;;1839606;76;21114;-75
2021/10/10 07:33:16;;;;;;;10.35;9.10;;;33.40;92.90;;;;;;1844281;77;21162;-76
2021/10/10 07:35:48;;;;;;;12.93;9.60;;;33.40;93.10;;;;;;1842894;75;21218;-74
2021/10/10 07:38:19;;;;;;;9.70;8.70;;;33.30;93.30;;;;;;1842388;77;21165;-76
2021/10/10 07:41:36;;;;;;;9.35;8.15;;;33.40;93.10;;;;;;1845227;75;21111;-78
2021/10/10 07:43:35;;;;;;;9.25;8.35;;;33.30;93.10;;;;;;1845426;76;21143;-77
2021/10/10 07:46:18;;;;;;;9.68;8.65;;;33.20;93.00;;;;;;1862798;76;21565;-76
2021/10/10 07:48:39;;;;;;;10.68;9.68;;;33.20;93.40;;;;;;1849451;75;21553;-75
2021/10/10 07:51:10;;;;;;;9.33;8.33;;;33.10;93.40;;;;;;1850484;76;21113;-77
2021/10/10 07:53:41;;;;;;;9.63;8.70;;;33.30;93.40;;;;;;1871732;74;21247;-76
2021/10/10 07:56:19;;;;;;;8.88;7.83;;;33.30;93.40;;;;;;1822784;77;21213;-77
2021/10/10 07:58:47;;;;;;;11.00;8.73;;;33.10;93.70;;;;;;1817181;78;21548;-77
2021/10/10 08:01:20;;;;;;;9.60;8.38;;;33.20;94.50;;;;;;1830329;76;21111;-76
2021/10/10 08:03:51;;;;;;;11.60;9.20;;;33.10;94.10;;;;;;1835647;77;21084;-77
2021/10/10 08:06:22;;;;;;;11.43;8.65;;;33.00;94.50;;;;;;1834886;77;21102;-77
2021/10/10 08:08:53;;;;;;;9.65;8.65;;;33.00;92.80;;;;;;1823513;77;21112;-78
2021/10/10 08:11:26;;;;;;;9.93;8.83;;;33.20;92.60;;;;;;1826336;77;21236;-77
2021/10/10 08:13:56;;;;;;;10.68;8.73;;;33.20;92.40;;;;;;1824417;77;21169;-78
2021/10/10 08:16:27;;;;;;;10.95;9.30;;;32.90;92.70;;;;;;1807097;78;21158;-79
2021/10/10 08:18:57;;;;;;;11.55;8.93;;;33.10;92.90;;;;;;1870640;74;21139;-77
2021/10/10 08:21:31;;;;;;;10.55;8.98;;;33.00;93.10;;;;;;1889870;75;21617;-79
2021/10/10 08:24:04;;;;;;;10.30;8.83;;;33.10;92.70;;;;;;1854289;76;21095;-77
2021/10/10 08:26:35;;;;;;;9.55;8.55;;;33.10;92.50;;;;;;1868609;76;21086;-76
2021/10/10 08:29:06;;;;;;;11.20;8.70;;;32.80;92.60;;;;;;1862936;76;21096;-76
2021/10/10 08:31:36;;;;;;;10.38;8.50;;;33.00;92.70;;;;;;1881083;74;21158;-76
2021/10/10 08:34:07;;;;;;;11.43;9.35;;;32.70;92.40;;;;;;1874055;76;21547;-76
2021/10/10 08:36:39;;;;;;;9.98;8.95;;;32.60;92.30;;;;;;1843467;76;21774;-76
2021/10/10 08:39:10;;;;;;;9.63;8.60;;;32.70;92.60;;;;;;1886247;76;21121;-76
2021/10/10 08:41:43;;;;;;;13.65;9.43;;;32.80;92.80;;;;;;1856807;75;21572;-78
2021/10/10 08:44:18;;;;;;;9.15;8.15;;;32.80;92.70;;;;;;1858352;75;21139;-77
2021/10/10 08:46:49;;;;;;;11.12;9.10;;;32.80;92.80;;;;;;1887117;74;21604;-76
2021/10/10 08:49:20;;;;;;;9.83;8.45;;;32.90;92.70;;;;;;1883927;75;21135;-77
2021/10/10 08:51:51;;;;;;;13.43;9.23;;;32.80;92.80;;;;;;1866038;75;21106;-80
2021/10/10 08:54:22;;;;;;;13.95;8.80;;;33.00;94.50;;;;;;1860001;76;21085;-80
2021/10/10 08:56:54;;;;;;;9.88;8.80;;;33.10;97.70;;;;;;1843819;74;21092;-78
2021/10/10 08:59:26;;;;;;;9.63;8.13;;;32.80;97.50;;;;;;1869858;74;21306;-78
2021/10/10 09:01:58;;;;;;;10.08;9.03;;;32.80;94.70;;;;;;1871869;74;21690;-78
2021/10/10 09:04:30;;;;;;;9.83;8.83;;;32.80;91.90;;;;;;1851896;76;21090;-79
2021/10/10 09:07:01;;;;;;;10.98;8.93;;;32.60;92.40;;;;;;1842983;76;21528;-78
2021/10/10 09:09:36;;;;;;;10.80;8.60;;;32.70;93.80;;;;;;1850378;76;21065;-79
2021/10/10 09:12:09;;;;;;;9.18;8.28;;;32.60;92.70;;;;;;1864028;76;21150;-79
2021/10/10 09:14:42;;;;;;;8.63;7.72;;;32.70;92.80;;;;;;1839833;77;21137;-78
2021/10/10 09:17:15;;;;;;;10.53;8.68;;;32.50;93.20;;;;;;1827540;76;21197;-80
2021/10/10 09:19:49;;;;;;;9.20;8.28;;;32.60;93.20;;;;;;1861397;75;21083;-78
2021/10/10 09:22:22;;;;;;;10.10;8.60;;;32.70;93.30;;;;;;1813050;77;21134;-78
2021/10/10 09:24:55;;;;;;;10.90;8.80;;;32.70;93.10;;;;;;1815364;77;21205;-78
2021/10/10 09:27:28;;;;;;;9.75;8.60;;;32.60;93.30;;;;;;1826978;77;21572;-79
2021/10/10 09:30:02;;;;;;;9.65;8.60;;;32.50;93.40;;;;;;1824672;75;21171;-79
2021/10/10 09:32:32;;;;;;;10.10;8.63;;;32.40;93.50;;;;;;1831300;76;21163;-78
2021/10/10 09:35:05;;;;;;;9.98;8.50;;;32.70;93.90;;;;;;1820671;77;21156;-79
2021/10/10 09:37:42;;;;;;;9.03;8.13;;;32.60;93.60;;;;;;1840026;76;21702;-78
2021/10/10 09:40:24;;;;;;;10.08;8.95;;;32.60;93.60;;;;;;1830454;75;21216;-77
2021/10/10 09:42:46;;;;;;;10.13;8.38;;;32.40;93.60;;;;;;1829050;76;21232;-79
2021/10/10 09:45:29;;;;;;;11.50;8.63;;;32.40;94.90;;;;;;1822430;76;21190;-80
2021/10/10 09:47:55;;;;;;;9.55;8.63;;;32.60;97.30;;;;;;1806019;77;21624;-79
2021/10/10 09:50:27;;;;;;;14.47;9.60;;;32.40;96.50;;;;;;1825208;78;21176;-77
2021/10/10 09:53:01;;;;;;;12.10;8.40;;;32.60;94.20;;;;;;1869859;74;21553;-79
2021/10/10 09:55:33;;;;;;;9.50;8.50;;;32.50;94.50;;;;;;1874759;75;21543;-78
2021/10/10 09:58:05;;;;;;;10.43;8.53;;;32.30;94.70;;;;;;1848620;76;21165;-78
2021/10/10 10:00:37;;;;;;;9.18;7.90;;;32.50;95.40;;;;;;1843195;76;21548;-77
2021/10/10 10:03:12;;;;;;;9.33;8.40;;;32.40;96.00;;;;;;1851402;76;21109;-78
2021/10/10 10:05:41;;;;;;;10.30;9.20;;;32.30;95.60;;;;;;1853654;76;21210;-78
2021/10/10 10:08:13;;;;;;;12.23;8.25;;;32.20;95.70;;;;;;1867085;74;21165;-78
2021/10/10 10:10:44;;;;;;;9.75;7.33;;;32.40;95.90;;;;;;1867343;75;21150;-77
2021/10/10 10:13:17;;;;;;;8.73;7.72;;;32.20;95.80;;;;;;1885499;75;21117;-78
2021/10/10 10:15:48;;;;;;;10.35;7.92;;;32.40;96.20;;;;;;1867275;75;21177;-76
2021/10/10 10:18:19;;;;;;;10.32;7.85;;;32.10;96.10;;;;;;1891439;75;21226;-76
2021/10/10 10:20:50;;;;;;;10.55;8.68;;;32.10;96.40;;;;;;1875725;75;21087;-77
2021/10/10 10:23:21;;;;;;;16.82;9.38;;;32.30;97.30;;;;;;1867707;74;21546;-77
2021/10/10 10:25:54;;;;;;;11.25;8.38;;;32.00;97.20;;;;;;1872618;75;21100;-77
2021/10/10 10:28:25;;;;;;;11.43;9.15;;;32.20;97.40;;;;;;1881165;75;21172;-76
2021/10/10 10:30:57;;;;;;;9.28;8.25;;;32.00;97.30;;;;;;1871204;75;21172;-76
2021/10/10 10:33:30;;;;;;;12.05;8.40;;;32.00;97.20;;;;;;1891713;75;21563;-76
2021/10/10 10:36:02;;;;;;;11.30;8.30;;;32.00;97.10;;;;;;1886457;75;21187;-77
2021/10/10 10:38:35;;;;;;;13.60;8.43;;;32.20;97.30;;;;;;1875311;75;21565;-76
2021/10/10 10:41:06;;;;;;;14.87;8.75;;;31.90;97.20;;;;;;1873825;75;21523;-77
2021/10/10 10:43:37;;;;;;;10.38;8.45;;;31.90;97.20;;;;;;1848274;75;21187;-76
2021/10/10 10:46:08;;;;;;;14.15;8.70;;;31.90;97.40;;;;;;1861535;75;21112;-75
2021/10/10 10:48:39;;;;;;;12.25;7.83;;;31.90;97.50;;;;;;1874403;75;21096;-75
2021/10/10 10:51:14;;;;;;;9.13;7.70;;;31.90;97.50;;;;;;1857779;76;21218;-75
2021/10/10 10:53:45;;;;;;;8.58;7.08;;;31.90;97.70;;;;;;1829546;76;21132;-77
2021/10/10 10:56:18;;;;;;;9.20;7.92;;;31.80;97.60;;;;;;1878895;75;21258;-77
2021/10/10 10:58:49;;;;;;;10.00;7.15;;;31.70;97.70;;;;;;1880812;74;21485;-77
2021/10/10 11:01:20;;;;;;;10.93;8.43;;;32.00;97.90;;;;;;1852321;75;21151;-77
2021/10/10 11:03:59;;;;;;;10.88;7.65;;;31.70;97.80;;;;;;1867835;74;21554;-76
2021/10/10 11:06:30;;;;;;;12.47;7.78;;;31.90;98.30;;;;;;1833048;76;21089;-77
2021/10/10 11:09:04;;;;;;;9.80;7.62;;;31.70;98.10;;;;;;1817747;78;21608;-76
2021/10/10 11:11:38;;;;;;;9.35;8.10;;;31.60;98.30;;;;;;1838612;76;21554;-76
2021/10/10 11:14:11;;;;;;;14.78;8.48;;;31.90;98.60;;;;;;1854932;75;21107;-77
2021/10/10 11:16:42;;;;;;;11.22;8.25;;;31.90;98.80;;;;;;1852224;77;21562;-77
2021/10/10 11:19:14;;;;;;;11.65;8.78;;;31.70;99.00;;;;;;1851512;75;21195;-76
2021/10/10 11:21:46;;;;;;;11.25;8.83;;;31.60;99.00;;;;;;1809393;79;21114;-76
2021/10/10 11:24:19;;;;;;;11.10;8.85;;;31.70;99.10;;;;;;1845679;76;21515;-77
2021/10/10 11:26:52;;;;;;;12.98;8.43;;;31.70;99.20;;;;;;1860266;76;21141;-76
2021/10/10 11:29:24;;;;;;;10.40;7.92;;;31.50;99.10;;;;;;1884739;74;21546;-76
2021/10/10 11:31:57;;;;;;;10.43;8.35;;;31.50;99.10;;;;;;1846860;76;21249;-76
2021/10/10 11:34:27;;;;;;;10.45;7.65;;;31.80;99.40;;;;;;1809624;78;21108;-76
2021/10/10 11:36:59;;;;;;;11.97;8.30;;;31.70;99.40;;;;;;1834782;75;21645;-78
2021/10/10 11:39:33;;;;;;;11.35;7.70;;;31.40;99.40;;;;;;1823731;75;21114;-78
2021/10/10 11:42:10;;;;;;;10.28;7.80;;;31.50;99.50;;;;;;1860907;76;21641;-84
2021/10/10 11:44:42;;;;;;;11.10;7.78;;;31.40;99.40;;;;;;1858479;76;21091;-88
2021/10/10 11:47:15;;;;;;;10.18;8.83;;;31.40;99.50;;;;;;1799067;78;21201;-85
2021/10/10 11:50:04;;;;;;;11.88;8.73;;;31.30;99.60;;;;;;1841667;76;21111;-85
2021/10/10 11:55:07;;;;;;;11.45;8.03;;;31.20;99.70;;;;;;1819419;77;21157;-85
2021/10/10 11:57:30;;;;;;;12.10;8.73;;;31.50;99.90;;;;;;1816159;77;21589;-85
2021/10/10 12:00:03;;;;;;;11.68;8.65;;;31.30;99.90;;;;;;1815651;77;21095;-85
2021/10/10 12:02:39;;;;;;;11.28;9.05;;;31.30;99.90;;;;;;1796038;78;21216;-84
2021/10/10 12:05:11;;;;;;;14.58;8.78;;;31.10;99.90;;;;;;1841594;77;21544;-85
2021/10/10 12:07:44;;;;;;;14.40;9.18;;;31.20;99.90;;;;;;1849538;75;21119;-86
2021/10/10 12:10:18;;;;;;;12.88;8.13;;;31.10;99.90;;;;;;1846611;76;21199;-84
2021/10/10 12:12:55;;;;;;;13.83;8.78;;;31.20;99.90;;;;;;1809133;76;21120;-86
2021/10/10 12:15:25;;;;;;;11.95;8.85;;;31.10;99.90;;;;;;1816291;77;21172;-85
2021/10/10 12:17:57;;;;;;;13.53;9.38;;;31.00;99.90;;;;;;1794258;77;21082;-84
2021/10/10 12:20:30;;;;;;;14.40;9.28;;;31.00;99.90;;;;;;1841527;77;21128;-84
2021/10/10 12:23:12;;;;;;;11.00;9.33;;;30.90;99.90;;;;;;1815886;77;21101;-84
2021/10/10 12:25:42;;;;;;;11.18;9.13;;;30.90;99.90;;;;;;1810374;78;21121;-85
2021/10/10 12:28:16;;;;;;;12.98;8.40;;;31.00;99.90;;;;;;1850239;77;21080;-85
2021/10/10 12:30:51;;;;;;;10.75;8.83;;;31.10;99.90;;;;;;1815754;77;21176;-84
2021/10/10 12:33:28;;;;;;;11.55;8.63;;;30.90;99.90;;;;;;1814166;77;21195;-85
2021/10/10 12:36:01;;;;;;;10.48;7.83;;;31.00;99.90;;;;;;1846897;76;21106;-84
2021/10/10 12:38:34;;;;;;;19.10;9.03;;;30.80;99.90;;;;;;1798724;75;21163;-85
2021/10/10 12:41:11;;;;;;;14.07;8.53;;;30.90;99.90;;;;;;1805475;79;21121;-85
2021/10/10 12:43:43;;;;;;;12.78;7.85;;;;;;;;;;1839264;77;21104;-85
2021/10/10 12:46:27;;;;;;;12.15;8.25;;;;;;;;;;1844777;77;21136;-84
2021/10/10 12:49:01;;;;;;;11.63;8.60;;;;;;;;;;1851483;76;21515;-85
2021/10/10 12:51:33;;;;;;;11.95;8.93;;;;;;;;;;1845711;76;21106;-84
2021/10/10 12:54:04;;;;;;;15.50;8.78;;;;;;;;;;1844978;77;21227;-82
2021/10/10 12:56:35;;;;;;;12.00;9.00;;;;;;;;;;1813299;77;21156;-83
2021/10/10 12:59:19;;;;;;;15.63;9.08;;;30.90;99.90;;;;;;1818424;77;21113;-85
2021/10/10 13:01:49;;;;;;;12.63;8.98;;;30.90;99.90;;;;;;1842624;76;21536;-85
2021/10/10 13:04:21;;;;;;;13.75;8.75;;;30.80;99.90;;;;;;1847614;76;21133;-84
2021/10/10 13:06:55;;;;;;;12.63;9.08;;;30.80;99.90;;;;;;1840985;77;21189;-85
2021/10/10 13:09:28;;;;;;;12.35;8.35;;;30.70;99.90;;;;;;1804318;77;21066;-83
2021/10/10 13:12:02;;;;;;;13.45;8.90;;;30.60;99.90;;;;;;1850658;76;21213;-84
2021/10/10 13:14:33;;;;;;;12.37;8.83;;;30.80;99.90;;;;;;1820667;77;21112;-84